sensor_id;sensor_type;location;lat;lon;timestamp;P1;durP1;ratioP1;P2;durP2;ratioP2
30818;SDS011;17546;42.674;23.284;2023-07-24T00:02:19;16.92;;;9.25;;
30818;SDS011;17546;42.674;23.284;2023-07-24T00:04:45;17.30;;;9.40;;
30818;SDS011;17546;42.674;23.284;2023-07-24T00:07:10;19.95;;;10.13;;
30818;SDS011;17546;42.674;23.284;2023-07-24T00:09:36;15.68;;;9.45;;
30818;SDS011;17546;42.674;23.284;2023-07-24T00:12:01;16.05;;;9.57;;
30818;SDS011;17546;42.674;23.284;2023-07-24T00:14:26;18.63;;;9.80;;
30818;SDS011;17546;42.674;23.284;2023-07-24T00:16:52;20.90;;;10.18;;
30818;SDS011;17546;42.674;23.284;2023-07-24T00:19:17;17.73;;;9.23;;
30818;SDS011;17546;42.674;23.284;2023-07-24T00:21:43;22.02;;;9.30;;
30818;SDS011;17546;42.674;23.284;2023-07-24T00:24:08;16.90;;;10.45;;
30818;SDS011;17546;42.674;23.284;2023-07-24T00:26:34;18.20;;;10.27;;
30818;SDS011;17546;42.674;23.284;2023-07-24T00:28:59;16.50;;;10.02;;
30818;SDS011;17546;42.674;23.284;2023-07-24T00:31:25;17.67;;;10.13;;
30818;SDS011;17546;42.674;23.284;2023-07-24T00:33:51;19.88;;;10.35;;
30818;SDS011;17546;42.674;23.284;2023-07-24T00:36:16;19.48;;;10.52;;
30818;SDS011;17546;42.674;23.284;2023-07-24T00:50:29;16.23;;;9.75;;
30818;SDS011;17546;42.674;23.284;2023-07-24T00:52:55;21.60;;;11.15;;
30818;SDS011;17546;42.674;23.284;2023-07-24T00:55:25;24.17;;;11.13;;
30818;SDS011;17546;42.674;23.284;2023-07-24T00:57:51;18.85;;;11.30;;
30818;SDS011;17546;42.674;23.284;2023-07-24T01:00:17;18.05;;;11.23;;
30818;SDS011;17546;42.674;23.284;2023-07-24T01:02:45;18.20;;;11.00;;
30818;SDS011;17546;42.674;23.284;2023-07-24T01:05:12;17.20;;;10.80;;
30818;SDS011;17546;42.674;23.284;2023-07-24T01:07:39;21.38;;;11.63;;
30818;SDS011;17546;42.674;23.284;2023-07-24T01:10:05;18.92;;;11.85;;
30818;SDS011;17546;42.674;23.284;2023-07-24T01:15:26;19.70;;;11.98;;
30818;SDS011;17546;42.674;23.284;2023-07-24T01:18:11;18.27;;;11.63;;
30818;SDS011;17546;42.674;23.284;2023-07-24T01:20:41;19.38;;;11.85;;
30818;SDS011;17546;42.674;23.284;2023-07-24T01:23:23;30.17;;;12.38;;
30818;SDS011;17546;42.674;23.284;2023-07-24T01:26:02;19.50;;;11.40;;
30818;SDS011;17546;42.674;23.284;2023-07-24T01:28:29;23.05;;;12.20;;
30818;SDS011;17546;42.674;23.284;2023-07-24T01:30:55;25.58;;;11.85;;
30818;SDS011;17546;42.674;23.284;2023-07-24T01:33:21;20.90;;;11.82;;
30818;SDS011;17546;42.674;23.284;2023-07-24T01:35:51;23.88;;;11.98;;
30818;SDS011;17546;42.674;23.284;2023-07-24T01:38:19;23.30;;;12.98;;
30818;SDS011;17546;42.674;23.284;2023-07-24T01:40:49;23.70;;;11.82;;
30818;SDS011;17546;42.674;23.284;2023-07-24T01:43:15;18.48;;;11.60;;
30818;SDS011;17546;42.674;23.284;2023-07-24T01:45:41;24.60;;;12.25;;
30818;SDS011;17546;42.674;23.284;2023-07-24T01:48:06;25.02;;;12.88;;
30818;SDS011;17546;42.674;23.284;2023-07-24T01:50:32;21.38;;;12.18;;
30818;SDS011;17546;42.674;23.284;2023-07-24T01:52:59;33.10;;;13.52;;
30818;SDS011;17546;42.674;23.284;2023-07-24T01:55:25;23.25;;;12.48;;
30818;SDS011;17546;42.674;23.284;2023-07-24T01:57:50;23.90;;;12.88;;
30818;SDS011;17546;42.674;23.284;2023-07-24T02:00:20;24.80;;;12.88;;
30818;SDS011;17546;42.674;23.284;2023-07-24T02:02:46;24.50;;;13.10;;
30818;SDS011;17546;42.674;23.284;2023-07-24T02:05:11;24.33;;;12.57;;
30818;SDS011;17546;42.674;23.284;2023-07-24T02:07:37;29.00;;;12.70;;
30818;SDS011;17546;42.674;23.284;2023-07-24T02:10:02;23.35;;;13.07;;
30818;SDS011;17546;42.674;23.284;2023-07-24T02:12:33;30.92;;;13.25;;
30818;SDS011;17546;42.674;23.284;2023-07-24T02:14:59;22.60;;;13.25;;
30818;SDS011;17546;42.674;23.284;2023-07-24T02:17:24;22.65;;;13.38;;
30818;SDS011;17546;42.674;23.284;2023-07-24T02:19:50;24.95;;;12.88;;
30818;SDS011;17546;42.674;23.284;2023-07-24T02:22:15;27.10;;;13.50;;
30818;SDS011;17546;42.674;23.284;2023-07-24T02:24:41;27.35;;;13.68;;
30818;SDS011;17546;42.674;23.284;2023-07-24T02:27:07;22.30;;;13.13;;
30818;SDS011;17546;42.674;23.284;2023-07-24T02:29:38;24.90;;;13.48;;
30818;SDS011;17546;42.674;23.284;2023-07-24T02:32:04;24.55;;;13.18;;
30818;SDS011;17546;42.674;23.284;2023-07-24T02:34:29;23.80;;;13.32;;
30818;SDS011;17546;42.674;23.284;2023-07-24T02:36:55;26.15;;;13.32;;
30818;SDS011;17546;42.674;23.284;2023-07-24T02:39:20;26.27;;;13.30;;
30818;SDS011;17546;42.674;23.284;2023-07-24T02:41:47;23.40;;;13.93;;
30818;SDS011;17546;42.674;23.284;2023-07-24T02:44:13;42.38;;;14.88;;
30818;SDS011;17546;42.674;23.284;2023-07-24T02:46:39;28.35;;;15.23;;
30818;SDS011;17546;42.674;23.284;2023-07-24T02:49:04;33.15;;;14.93;;
30818;SDS011;17546;42.674;23.284;2023-07-24T02:51:32;29.33;;;14.90;;
30818;SDS011;17546;42.674;23.284;2023-07-24T02:53:58;26.80;;;14.80;;
30818;SDS011;17546;42.674;23.284;2023-07-24T02:56:23;24.20;;;14.40;;
30818;SDS011;17546;42.674;23.284;2023-07-24T02:58:48;26.13;;;13.82;;
30818;SDS011;17546;42.674;23.284;2023-07-24T03:01:14;27.20;;;13.63;;
30818;SDS011;17546;42.674;23.284;2023-07-24T03:03:40;28.27;;;14.75;;
30818;SDS011;17546;42.674;23.284;2023-07-24T03:06:06;30.42;;;13.63;;
30818;SDS011;17546;42.674;23.284;2023-07-24T03:08:32;25.42;;;14.48;;
30818;SDS011;17546;42.674;23.284;2023-07-24T03:10:57;29.10;;;14.95;;
30818;SDS011;17546;42.674;23.284;2023-07-24T03:13:24;27.63;;;14.63;;
30818;SDS011;17546;42.674;23.284;2023-07-24T03:15:56;28.52;;;14.27;;
30818;SDS011;17546;42.674;23.284;2023-07-24T03:18:22;27.60;;;14.95;;
30818;SDS011;17546;42.674;23.284;2023-07-24T03:20:48;27.20;;;14.48;;
30818;SDS011;17546;42.674;23.284;2023-07-24T03:23:14;27.85;;;14.57;;
30818;SDS011;17546;42.674;23.284;2023-07-24T03:25:39;30.35;;;15.27;;
30818;SDS011;17546;42.674;23.284;2023-07-24T03:28:05;23.80;;;14.52;;
30818;SDS011;17546;42.674;23.284;2023-07-24T03:30:30;35.95;;;15.85;;
30818;SDS011;17546;42.674;23.284;2023-07-24T03:32:56;32.85;;;15.27;;
30818;SDS011;17546;42.674;23.284;2023-07-24T03:35:22;28.75;;;14.05;;
30818;SDS011;17546;42.674;23.284;2023-07-24T03:37:47;27.80;;;14.18;;
30818;SDS011;17546;42.674;23.284;2023-07-24T03:40:16;20.48;;;11.45;;
30818;SDS011;17546;42.674;23.284;2023-07-24T03:42:41;19.13;;;10.88;;
30818;SDS011;17546;42.674;23.284;2023-07-24T03:45:07;17.88;;;10.13;;
30818;SDS011;17546;42.674;23.284;2023-07-24T03:47:33;19.27;;;10.25;;
30818;SDS011;17546;42.674;23.284;2023-07-24T03:49:58;16.48;;;10.75;;
30818;SDS011;17546;42.674;23.284;2023-07-24T03:52:24;22.13;;;10.05;;
30818;SDS011;17546;42.674;23.284;2023-07-24T03:54:50;22.02;;;9.85;;
30818;SDS011;17546;42.674;23.284;2023-07-24T03:57:16;22.98;;;9.88;;
30818;SDS011;17546;42.674;23.284;2023-07-24T03:59:41;18.40;;;9.70;;
30818;SDS011;17546;42.674;23.284;2023-07-24T04:02:07;14.05;;;9.20;;
30818;SDS011;17546;42.674;23.284;2023-07-24T04:04:32;16.38;;;9.20;;
30818;SDS011;17546;42.674;23.284;2023-07-24T04:06:58;14.70;;;9.23;;
30818;SDS011;17546;42.674;23.284;2023-07-24T04:09:23;19.80;;;9.73;;
30818;SDS011;17546;42.674;23.284;2023-07-24T04:11:49;26.65;;;10.05;;
30818;SDS011;17546;42.674;23.284;2023-07-24T04:14:14;25.60;;;9.50;;
30818;SDS011;17546;42.674;23.284;2023-07-24T04:16:39;28.10;;;9.93;;
30818;SDS011;17546;42.674;23.284;2023-07-24T04:19:05;21.67;;;9.60;;
30818;SDS011;17546;42.674;23.284;2023-07-24T04:21:30;21.80;;;10.27;;
30818;SDS011;17546;42.674;23.284;2023-07-24T04:23:56;19.00;;;9.55;;
30818;SDS011;17546;42.674;23.284;2023-07-24T04:26:21;23.13;;;9.95;;
30818;SDS011;17546;42.674;23.284;2023-07-24T04:28:47;20.77;;;10.45;;
30818;SDS011;17546;42.674;23.284;2023-07-24T04:31:12;19.17;;;9.77;;
30818;SDS011;17546;42.674;23.284;2023-07-24T04:33:38;23.13;;;10.50;;
30818;SDS011;17546;42.674;23.284;2023-07-24T04:36:04;17.52;;;9.57;;
30818;SDS011;17546;42.674;23.284;2023-07-24T04:38:29;22.55;;;9.70;;
30818;SDS011;17546;42.674;23.284;2023-07-24T04:40:55;19.35;;;9.63;;
30818;SDS011;17546;42.674;23.284;2023-07-24T04:43:20;19.48;;;10.32;;
30818;SDS011;17546;42.674;23.284;2023-07-24T04:45:46;19.88;;;10.48;;
30818;SDS011;17546;42.674;23.284;2023-07-24T04:48:12;20.42;;;10.10;;
30818;SDS011;17546;42.674;23.284;2023-07-24T04:50:37;18.63;;;9.80;;
30818;SDS011;17546;42.674;23.284;2023-07-24T04:53:02;22.85;;;11.05;;
30818;SDS011;17546;42.674;23.284;2023-07-24T04:55:28;23.20;;;11.10;;
30818;SDS011;17546;42.674;23.284;2023-07-24T04:57:53;26.50;;;11.45;;
30818;SDS011;17546;42.674;23.284;2023-07-24T05:00:19;22.63;;;11.23;;
30818;SDS011;17546;42.674;23.284;2023-07-24T05:02:44;30.38;;;11.48;;
30818;SDS011;17546;42.674;23.284;2023-07-24T05:05:09;20.45;;;10.98;;
30818;SDS011;17546;42.674;23.284;2023-07-24T05:07:35;27.38;;;11.10;;
30818;SDS011;17546;42.674;23.284;2023-07-24T05:10:00;23.25;;;10.65;;
30818;SDS011;17546;42.674;23.284;2023-07-24T05:12:26;28.38;;;13.32;;
30818;SDS011;17546;42.674;23.284;2023-07-24T05:14:51;27.27;;;13.10;;
30818;SDS011;17546;42.674;23.284;2023-07-24T05:17:17;25.83;;;12.43;;
30818;SDS011;17546;42.674;23.284;2023-07-24T05:19:42;22.52;;;11.93;;
30818;SDS011;17546;42.674;23.284;2023-07-24T05:22:08;25.85;;;12.98;;
30818;SDS011;17546;42.674;23.284;2023-07-24T05:24:35;20.15;;;11.27;;
30818;SDS011;17546;42.674;23.284;2023-07-24T05:27:01;27.00;;;11.60;;
30818;SDS011;17546;42.674;23.284;2023-07-24T05:29:27;24.10;;;12.10;;
30818;SDS011;17546;42.674;23.284;2023-07-24T05:31:53;32.85;;;12.75;;
30818;SDS011;17546;42.674;23.284;2023-07-24T05:34:18;24.40;;;13.73;;
30818;SDS011;17546;42.674;23.284;2023-07-24T05:36:43;24.50;;;13.90;;
30818;SDS011;17546;42.674;23.284;2023-07-24T05:39:09;23.30;;;13.57;;
30818;SDS011;17546;42.674;23.284;2023-07-24T05:41:34;23.40;;;13.70;;
30818;SDS011;17546;42.674;23.284;2023-07-24T05:44:00;30.60;;;12.50;;
30818;SDS011;17546;42.674;23.284;2023-07-24T05:46:25;22.75;;;12.93;;
30818;SDS011;17546;42.674;23.284;2023-07-24T05:48:50;27.67;;;14.25;;
30818;SDS011;17546;42.674;23.284;2023-07-24T05:51:16;27.15;;;14.02;;
30818;SDS011;17546;42.674;23.284;2023-07-24T05:53:41;31.63;;;14.32;;
30818;SDS011;17546;42.674;23.284;2023-07-24T05:56:07;25.98;;;13.32;;
30818;SDS011;17546;42.674;23.284;2023-07-24T05:58:32;24.08;;;13.68;;
30818;SDS011;17546;42.674;23.284;2023-07-24T06:01:00;27.80;;;13.30;;
30818;SDS011;17546;42.674;23.284;2023-07-24T06:03:26;24.55;;;13.07;;
30818;SDS011;17546;42.674;23.284;2023-07-24T06:05:52;24.02;;;12.95;;
30818;SDS011;17546;42.674;23.284;2023-07-24T06:08:20;24.20;;;14.13;;
30818;SDS011;17546;42.674;23.284;2023-07-24T06:10:47;25.38;;;15.02;;
30818;SDS011;17546;42.674;23.284;2023-07-24T06:13:14;31.60;;;14.02;;
30818;SDS011;17546;42.674;23.284;2023-07-24T06:15:41;23.55;;;13.82;;
30818;SDS011;17546;42.674;23.284;2023-07-24T06:18:06;33.25;;;14.02;;
30818;SDS011;17546;42.674;23.284;2023-07-24T06:20:32;33.17;;;19.80;;
30818;SDS011;17546;42.674;23.284;2023-07-24T06:22:57;26.35;;;14.63;;
30818;SDS011;17546;42.674;23.284;2023-07-24T06:25:23;28.80;;;14.00;;
30818;SDS011;17546;42.674;23.284;2023-07-24T06:27:48;27.83;;;14.20;;
30818;SDS011;17546;42.674;23.284;2023-07-24T06:30:14;27.48;;;13.70;;
30818;SDS011;17546;42.674;23.284;2023-07-24T06:32:39;25.98;;;13.90;;
30818;SDS011;17546;42.674;23.284;2023-07-24T06:35:05;22.45;;;13.60;;
30818;SDS011;17546;42.674;23.284;2023-07-24T06:37:31;28.13;;;13.57;;
30818;SDS011;17546;42.674;23.284;2023-07-24T06:39:56;25.58;;;14.90;;
30818;SDS011;17546;42.674;23.284;2023-07-24T06:42:22;27.73;;;14.25;;
30818;SDS011;17546;42.674;23.284;2023-07-24T06:44:47;23.35;;;13.65;;
30818;SDS011;17546;42.674;23.284;2023-07-24T06:50:09;28.55;;;13.65;;
30818;SDS011;17546;42.674;23.284;2023-07-24T06:52:34;27.40;;;14.00;;
30818;SDS011;17546;42.674;23.284;2023-07-24T06:54:59;25.67;;;13.85;;
30818;SDS011;17546;42.674;23.284;2023-07-24T06:57:25;29.02;;;13.18;;
30818;SDS011;17546;42.674;23.284;2023-07-24T06:59:50;29.40;;;13.98;;
30818;SDS011;17546;42.674;23.284;2023-07-24T07:02:20;22.63;;;13.52;;
30818;SDS011;17546;42.674;23.284;2023-07-24T07:04:46;28.05;;;13.13;;
30818;SDS011;17546;42.674;23.284;2023-07-24T07:07:11;33.53;;;12.90;;
30818;SDS011;17546;42.674;23.284;2023-07-24T07:09:42;25.77;;;12.52;;
30818;SDS011;17546;42.674;23.284;2023-07-24T07:12:08;25.85;;;12.50;;
30818;SDS011;17546;42.674;23.284;2023-07-24T07:14:33;21.50;;;11.90;;
30818;SDS011;17546;42.674;23.284;2023-07-24T07:20:03;20.60;;;11.95;;
30818;SDS011;17546;42.674;23.284;2023-07-24T07:22:29;31.00;;;12.15;;
30818;SDS011;17546;42.674;23.284;2023-07-24T07:24:54;24.20;;;11.20;;
30818;SDS011;17546;42.674;23.284;2023-07-24T07:27:19;26.73;;;12.32;;
30818;SDS011;17546;42.674;23.284;2023-07-24T07:29:45;25.60;;;12.35;;
30818;SDS011;17546;42.674;23.284;2023-07-24T07:32:10;32.15;;;11.80;;
30818;SDS011;17546;42.674;23.284;2023-07-24T07:34:35;27.60;;;12.65;;
30818;SDS011;17546;42.674;23.284;2023-07-24T07:37:23;20.60;;;12.15;;
30818;SDS011;17546;42.674;23.284;2023-07-24T07:39:48;29.90;;;12.30;;
30818;SDS011;17546;42.674;23.284;2023-07-24T07:42:14;30.83;;;11.93;;
30818;SDS011;17546;42.674;23.284;2023-07-24T07:51:16;23.58;;;11.15;;
30818;SDS011;17546;42.674;23.284;2023-07-24T07:56:52;34.95;;;12.73;;
30818;SDS011;17546;42.674;23.284;2023-07-24T07:59:18;27.05;;;12.85;;
30818;SDS011;17546;42.674;23.284;2023-07-24T08:04:45;37.90;;;12.15;;
30818;SDS011;17546;42.674;23.284;2023-07-24T08:07:10;26.95;;;11.80;;
30818;SDS011;17546;42.674;23.284;2023-07-24T08:15:07;26.20;;;11.77;;
30818;SDS011;17546;42.674;23.284;2023-07-24T08:24:07;23.20;;;12.18;;
30818;SDS011;17546;42.674;23.284;2023-07-24T08:26:32;29.52;;;12.45;;
30818;SDS011;17546;42.674;23.284;2023-07-24T08:31:56;25.10;;;11.02;;
30818;SDS011;17546;42.674;23.284;2023-07-24T08:34:21;30.40;;;11.30;;
30818;SDS011;17546;42.674;23.284;2023-07-24T08:36:57;24.50;;;11.27;;
30818;SDS011;17546;42.674;23.284;2023-07-24T08:39:23;29.98;;;12.05;;
30818;SDS011;17546;42.674;23.284;2023-07-24T08:41:48;18.48;;;11.38;;
30818;SDS011;17546;42.674;23.284;2023-07-24T08:44:29;20.20;;;10.30;;
30818;SDS011;17546;42.674;23.284;2023-07-24T08:46:56;30.58;;;12.02;;
30818;SDS011;17546;42.674;23.284;2023-07-24T08:49:21;24.00;;;11.30;;
30818;SDS011;17546;42.674;23.284;2023-07-24T08:51:58;24.67;;;11.15;;
30818;SDS011;17546;42.674;23.284;2023-07-24T08:54:26;25.25;;;11.95;;
30818;SDS011;17546;42.674;23.284;2023-07-24T08:56:52;25.92;;;11.27;;
30818;SDS011;17546;42.674;23.284;2023-07-24T09:02:46;25.23;;;11.23;;
30818;SDS011;17546;42.674;23.284;2023-07-24T09:05:12;30.00;;;11.63;;
30818;SDS011;17546;42.674;23.284;2023-07-24T09:07:39;24.33;;;11.45;;
30818;SDS011;17546;42.674;23.284;2023-07-24T09:10:09;25.48;;;12.27;;
30818;SDS011;17546;42.674;23.284;2023-07-24T09:12:36;26.55;;;12.88;;
30818;SDS011;17546;42.674;23.284;2023-07-24T09:15:05;22.63;;;12.57;;
30818;SDS011;17546;42.674;23.284;2023-07-24T09:17:31;32.97;;;14.27;;
30818;SDS011;17546;42.674;23.284;2023-07-24T09:19:57;29.38;;;12.65;;
30818;SDS011;17546;42.674;23.284;2023-07-24T09:22:23;28.75;;;12.60;;
30818;SDS011;17546;42.674;23.284;2023-07-24T09:24:52;25.65;;;12.15;;
30818;SDS011;17546;42.674;23.284;2023-07-24T09:27:26;28.05;;;12.18;;
30818;SDS011;17546;42.674;23.284;2023-07-24T09:29:58;21.80;;;12.20;;
30818;SDS011;17546;42.674;23.284;2023-07-24T09:32:25;30.58;;;12.57;;
30818;SDS011;17546;42.674;23.284;2023-07-24T09:34:51;32.92;;;12.23;;
30818;SDS011;17546;42.674;23.284;2023-07-24T09:37:30;25.52;;;11.60;;
30818;SDS011;17546;42.674;23.284;2023-07-24T09:39:57;25.13;;;12.75;;
30818;SDS011;17546;42.674;23.284;2023-07-24T09:42:33;27.73;;;11.70;;
30818;SDS011;17546;42.674;23.284;2023-07-24T09:45:00;33.05;;;12.70;;
30818;SDS011;17546;42.674;23.284;2023-07-24T09:47:26;27.27;;;11.88;;
30818;SDS011;17546;42.674;23.284;2023-07-24T09:49:53;27.38;;;12.13;;
30818;SDS011;17546;42.674;23.284;2023-07-24T09:52:19;28.38;;;12.82;;
30818;SDS011;17546;42.674;23.284;2023-07-24T09:55:38;32.42;;;12.02;;
30818;SDS011;17546;42.674;23.284;2023-07-24T09:57:54;22.48;;;11.13;;
30818;SDS011;17546;42.674;23.284;2023-07-24T10:00:20;28.73;;;11.75;;
30818;SDS011;17546;42.674;23.284;2023-07-24T10:03:26;27.88;;;12.60;;
30818;SDS011;17546;42.674;23.284;2023-07-24T10:05:52;31.35;;;12.75;;
30818;SDS011;17546;42.674;23.284;2023-07-24T10:08:22;32.33;;;12.70;;
30818;SDS011;17546;42.674;23.284;2023-07-24T10:10:49;23.38;;;11.45;;
30818;SDS011;17546;42.674;23.284;2023-07-24T10:13:17;29.20;;;10.82;;
30818;SDS011;17546;42.674;23.284;2023-07-24T10:15:50;24.75;;;11.43;;
30818;SDS011;17546;42.674;23.284;2023-07-24T10:18:16;30.05;;;11.10;;
30818;SDS011;17546;42.674;23.284;2023-07-24T10:20:43;30.45;;;11.95;;
30818;SDS011;17546;42.674;23.284;2023-07-24T10:23:15;32.65;;;12.02;;
30818;SDS011;17546;42.674;23.284;2023-07-24T10:25:43;35.00;;;11.93;;
30818;SDS011;17546;42.674;23.284;2023-07-24T10:28:10;39.88;;;10.30;;
30818;SDS011;17546;42.674;23.284;2023-07-24T10:30:37;26.48;;;9.95;;
30818;SDS011;17546;42.674;23.284;2023-07-24T10:33:07;32.78;;;9.02;;
30818;SDS011;17546;42.674;23.284;2023-07-24T10:35:36;35.42;;;8.82;;
30818;SDS011;17546;42.674;23.284;2023-07-24T10:38:15;25.52;;;9.07;;
30818;SDS011;17546;42.674;23.284;2023-07-24T10:46:15;21.08;;;8.35;;
30818;SDS011;17546;42.674;23.284;2023-07-24T10:52:08;33.27;;;7.77;;
30818;SDS011;17546;42.674;23.284;2023-07-24T10:54:33;22.33;;;8.35;;
30818;SDS011;17546;42.674;23.284;2023-07-24T10:59:55;19.17;;;7.72;;
30818;SDS011;17546;42.674;23.284;2023-07-24T11:02:20;26.77;;;8.38;;
30818;SDS011;17546;42.674;23.284;2023-07-24T11:04:49;20.50;;;7.50;;
30818;SDS011;17546;42.674;23.284;2023-07-24T11:07:14;21.83;;;7.50;;
30818;SDS011;17546;42.674;23.284;2023-07-24T11:12:55;28.73;;;8.13;;
30818;SDS011;17546;42.674;23.284;2023-07-24T11:15:24;27.27;;;8.05;;
30818;SDS011;17546;42.674;23.284;2023-07-24T11:17:51;15.80;;;8.15;;
30818;SDS011;17546;42.674;23.284;2023-07-24T11:20:17;20.02;;;7.68;;
30818;SDS011;17546;42.674;23.284;2023-07-24T11:22:43;25.00;;;7.85;;
30818;SDS011;17546;42.674;23.284;2023-07-24T11:25:09;20.75;;;7.88;;
30818;SDS011;17546;42.674;23.284;2023-07-24T11:27:39;20.25;;;8.68;;
30818;SDS011;17546;42.674;23.284;2023-07-24T11:30:07;20.60;;;8.65;;
30818;SDS011;17546;42.674;23.284;2023-07-24T11:32:32;16.90;;;8.02;;
30818;SDS011;17546;42.674;23.284;2023-07-24T11:35:01;20.60;;;8.20;;
30818;SDS011;17546;42.674;23.284;2023-07-24T11:37:28;21.27;;;8.30;;
30818;SDS011;17546;42.674;23.284;2023-07-24T11:39:58;19.05;;;8.88;;
30818;SDS011;17546;42.674;23.284;2023-07-24T11:42:27;23.27;;;9.13;;
30818;SDS011;17546;42.674;23.284;2023-07-24T11:44:53;20.67;;;8.60;;
30818;SDS011;17546;42.674;23.284;2023-07-24T11:47:20;24.83;;;9.07;;
30818;SDS011;17546;42.674;23.284;2023-07-24T11:49:56;25.38;;;8.73;;
30818;SDS011;17546;42.674;23.284;2023-07-24T11:55:56;23.50;;;9.03;;
30818;SDS011;17546;42.674;23.284;2023-07-24T11:58:24;24.02;;;9.57;;
30818;SDS011;17546;42.674;23.284;2023-07-24T12:00:51;28.52;;;10.02;;
30818;SDS011;17546;42.674;23.284;2023-07-24T12:03:27;27.55;;;8.82;;
30818;SDS011;17546;42.674;23.284;2023-07-24T12:05:54;16.60;;;8.95;;
30818;SDS011;17546;42.674;23.284;2023-07-24T12:08:19;17.90;;;9.02;;
30818;SDS011;17546;42.674;23.284;2023-07-24T12:10:58;19.23;;;8.40;;
30818;SDS011;17546;42.674;23.284;2023-07-24T12:13:24;22.27;;;8.38;;
30818;SDS011;17546;42.674;23.284;2023-07-24T12:15:49;22.08;;;8.27;;
30818;SDS011;17546;42.674;23.284;2023-07-24T12:21:03;21.85;;;7.93;;
30818;SDS011;17546;42.674;23.284;2023-07-24T12:23:28;21.27;;;8.30;;
30818;SDS011;17546;42.674;23.284;2023-07-24T12:25:53;18.17;;;8.02;;
30818;SDS011;17546;42.674;23.284;2023-07-24T12:28:19;24.17;;;8.93;;
30818;SDS011;17546;42.674;23.284;2023-07-24T12:30:54;23.05;;;8.88;;
30818;SDS011;17546;42.674;23.284;2023-07-24T12:33:19;27.15;;;9.43;;
30818;SDS011;17546;42.674;23.284;2023-07-24T12:35:48;18.90;;;8.80;;
30818;SDS011;17546;42.674;23.284;2023-07-24T12:41:14;19.42;;;8.98;;
30818;SDS011;17546;42.674;23.284;2023-07-24T12:43:39;21.30;;;8.55;;
30818;SDS011;17546;42.674;23.284;2023-07-24T12:49:39;17.13;;;8.40;;
30818;SDS011;17546;42.674;23.284;2023-07-24T12:52:05;20.02;;;8.43;;
30818;SDS011;17546;42.674;23.284;2023-07-24T12:54:32;22.23;;;8.48;;
30818;SDS011;17546;42.674;23.284;2023-07-24T12:57:06;15.02;;;8.27;;
30818;SDS011;17546;42.674;23.284;2023-07-24T12:59:32;19.13;;;8.20;;
30818;SDS011;17546;42.674;23.284;2023-07-24T13:01:57;19.25;;;8.55;;
30818;SDS011;17546;42.674;23.284;2023-07-24T13:04:23;17.85;;;8.68;;
30818;SDS011;17546;42.674;23.284;2023-07-24T13:06:49;20.90;;;8.93;;
30818;SDS011;17546;42.674;23.284;2023-07-24T13:09:29;16.98;;;8.45;;
30818;SDS011;17546;42.674;23.284;2023-07-24T13:11:54;24.55;;;8.90;;
30818;SDS011;17546;42.674;23.284;2023-07-24T13:14:20;14.93;;;7.95;;
30818;SDS011;17546;42.674;23.284;2023-07-24T13:16:54;20.30;;;8.48;;
30818;SDS011;17546;42.674;23.284;2023-07-24T13:19:20;17.45;;;8.75;;
30818;SDS011;17546;42.674;23.284;2023-07-24T13:21:45;19.83;;;8.57;;
30818;SDS011;17546;42.674;23.284;2023-07-24T13:24:19;18.50;;;8.65;;
30818;SDS011;17546;42.674;23.284;2023-07-24T13:26:45;13.38;;;8.85;;
30818;SDS011;17546;42.674;23.284;2023-07-24T13:29:10;20.75;;;8.82;;
30818;SDS011;17546;42.674;23.284;2023-07-24T13:31:40;16.15;;;8.68;;
30818;SDS011;17546;42.674;23.284;2023-07-24T13:34:05;14.82;;;9.10;;
30818;SDS011;17546;42.674;23.284;2023-07-24T13:36:33;18.30;;;9.15;;
30818;SDS011;17546;42.674;23.284;2023-07-24T13:39:05;19.52;;;8.77;;
30818;SDS011;17546;42.674;23.284;2023-07-24T13:41:31;18.25;;;9.27;;
30818;SDS011;17546;42.674;23.284;2023-07-24T13:43:57;16.00;;;8.88;;
30818;SDS011;17546;42.674;23.284;2023-07-24T13:46:39;16.80;;;8.63;;
30818;SDS011;17546;42.674;23.284;2023-07-24T13:49:04;17.70;;;8.98;;
30818;SDS011;17546;42.674;23.284;2023-07-24T13:51:29;20.10;;;9.35;;
30818;SDS011;17546;42.674;23.284;2023-07-24T13:54:08;16.35;;;9.02;;
30818;SDS011;17546;42.674;23.284;2023-07-24T13:56:33;18.85;;;9.32;;
30818;SDS011;17546;42.674;23.284;2023-07-24T13:59:00;29.35;;;9.75;;
30818;SDS011;17546;42.674;23.284;2023-07-24T14:01:45;17.77;;;9.52;;
30818;SDS011;17546;42.674;23.284;2023-07-24T14:04:10;16.45;;;9.35;;
30818;SDS011;17546;42.674;23.284;2023-07-24T14:06:37;18.60;;;8.90;;
30818;SDS011;17546;42.674;23.284;2023-07-24T14:09:12;19.02;;;10.13;;
30818;SDS011;17546;42.674;23.284;2023-07-24T14:11:37;17.17;;;9.30;;
30818;SDS011;17546;42.674;23.284;2023-07-24T14:14:03;17.45;;;9.80;;
30818;SDS011;17546;42.674;23.284;2023-07-24T14:19:54;17.20;;;9.17;;
30818;SDS011;17546;42.674;23.284;2023-07-24T14:22:20;16.83;;;9.85;;
30818;SDS011;17546;42.674;23.284;2023-07-24T14:24:45;17.00;;;10.05;;
30818;SDS011;17546;42.674;23.284;2023-07-24T14:30:39;21.10;;;9.80;;
30818;SDS011;17546;42.674;23.284;2023-07-24T14:33:04;17.70;;;10.30;;
30818;SDS011;17546;42.674;23.284;2023-07-24T14:35:29;22.70;;;10.35;;
30818;SDS011;17546;42.674;23.284;2023-07-24T14:37:55;21.23;;;10.60;;
30818;SDS011;17546;42.674;23.284;2023-07-24T14:40:20;22.05;;;10.13;;
30818;SDS011;17546;42.674;23.284;2023-07-24T14:46:03;20.20;;;9.93;;
30818;SDS011;17546;42.674;23.284;2023-07-24T14:48:28;18.63;;;10.00;;
30818;SDS011;17546;42.674;23.284;2023-07-24T14:50:53;20.95;;;10.02;;
30818;SDS011;17546;42.674;23.284;2023-07-24T14:53:19;15.77;;;9.68;;
30818;SDS011;17546;42.674;23.284;2023-07-24T14:55:51;21.58;;;9.77;;
30818;SDS011;17546;42.674;23.284;2023-07-24T14:58:16;20.13;;;10.18;;
30818;SDS011;17546;42.674;23.284;2023-07-24T15:00:41;14.10;;;9.05;;
30818;SDS011;17546;42.674;23.284;2023-07-24T15:03:07;21.40;;;10.25;;
30818;SDS011;17546;42.674;23.284;2023-07-24T15:05:32;15.93;;;9.68;;
30818;SDS011;17546;42.674;23.284;2023-07-24T15:07:58;19.60;;;9.65;;
30818;SDS011;17546;42.674;23.284;2023-07-24T15:10:23;19.63;;;9.73;;
30818;SDS011;17546;42.674;23.284;2023-07-24T15:12:49;16.63;;;9.80;;
30818;SDS011;17546;42.674;23.284;2023-07-24T15:18:33;26.33;;;11.15;;
30818;SDS011;17546;42.674;23.284;2023-07-24T15:20:59;22.25;;;9.65;;
30818;SDS011;17546;42.674;23.284;2023-07-24T15:26:51;23.33;;;10.10;;
30818;SDS011;17546;42.674;23.284;2023-07-24T15:29:16;19.92;;;9.73;;
30818;SDS011;17546;42.674;23.284;2023-07-24T15:31:59;19.80;;;10.38;;
30818;SDS011;17546;42.674;23.284;2023-07-24T15:34:24;25.95;;;11.07;;
30818;SDS011;17546;42.674;23.284;2023-07-24T15:36:50;26.67;;;10.60;;
30818;SDS011;17546;42.674;23.284;2023-07-24T15:42:32;16.80;;;10.00;;
30818;SDS011;17546;42.674;23.284;2023-07-24T15:44:57;19.65;;;9.93;;
30818;SDS011;17546;42.674;23.284;2023-07-24T15:50:56;18.10;;;9.98;;
30818;SDS011;17546;42.674;23.284;2023-07-24T15:53:22;18.38;;;10.90;;
30818;SDS011;17546;42.674;23.284;2023-07-24T15:55:47;18.08;;;10.70;;
30818;SDS011;17546;42.674;23.284;2023-07-24T15:58:13;20.23;;;10.55;;